createdAt,value
2019-01-10T00:04:39.395Z,0.9
2019-01-10T00:09:41.898Z,0.9
2019-01-10T00:14:44.322Z,1
2019-01-10T00:19:46.774Z,1
2019-01-10T00:24:49.281Z,1
2019-01-10T00:29:51.774Z,1
2019-01-10T00:34:54.172Z,1
2019-01-10T00:39:56.645Z,1.1
2019-01-10T00:44:59.095Z,1.1
2019-01-10T00:50:01.607Z,1
2019-01-10T01:00:06.544Z,1
2019-01-10T01:05:08.953Z,1
2019-01-10T01:10:11.435Z,1
2019-01-10T01:15:13.991Z,0.9
2019-01-10T01:20:16.446Z,0.9
2019-01-10T01:25:18.831Z,1
2019-01-10T01:30:21.309Z,0.9
2019-01-10T01:35:23.811Z,0.8
2019-01-10T01:40:26.266Z,0.8
2019-01-10T01:45:28.662Z,0.8
2019-01-10T01:50:31.182Z,0.7
2019-01-10T01:55:33.585Z,0.8
2019-01-10T02:00:36.057Z,0.7
2019-01-10T02:05:38.620Z,0.7
2019-01-10T02:10:41.078Z,0.8
2019-01-10T02:15:43.437Z,0.9
2019-01-10T02:20:45.890Z,1
2019-01-10T02:25:48.354Z,1
2019-01-10T02:30:50.840Z,1
2019-01-10T02:35:53.296Z,0.9
2019-01-10T02:40:55.750Z,0.9
2019-01-10T02:45:58.233Z,1
2019-01-10T02:51:00.688Z,1.1
2019-01-10T02:56:03.149Z,1
2019-01-10T03:01:05.769Z,1
2019-01-10T03:06:08.156Z,1
2019-01-10T03:11:10.531Z,1
2019-01-10T03:16:13.052Z,1
2019-01-10T03:21:15.462Z,1
2019-01-10T03:26:17.915Z,1
2019-01-10T03:31:20.399Z,1
2019-01-10T03:36:22.842Z,1
2019-01-10T03:41:25.315Z,1
2019-01-10T03:46:27.792Z,1
2019-01-10T03:51:30.236Z,1
2019-01-10T03:56:32.694Z,1
2019-01-10T04:01:35.189Z,1
2019-01-10T04:06:39.690Z,1
2019-01-10T04:11:40.079Z,1
2019-01-10T04:16:42.614Z,0.9
2019-01-10T04:21:45.003Z,0.9
2019-01-10T04:26:47.507Z,0.8
2019-01-10T04:31:49.938Z,0.8
2019-01-10T04:36:52.401Z,0.8
2019-01-10T04:41:54.869Z,0.8
2019-01-10T04:46:57.344Z,0.8
2019-01-10T04:51:59.789Z,0.9
2019-01-10T04:57:02.408Z,0.9
2019-01-10T05:02:18.215Z,0.9
2019-01-10T05:07:07.175Z,0.9
2019-01-10T05:12:09.668Z,0.9
2019-01-10T05:17:12.499Z,0.9
2019-01-10T05:22:14.559Z,0.9
2019-01-10T05:27:17.048Z,0.9
2019-01-10T05:32:19.538Z,0.9
2019-01-10T05:37:21.953Z,0.9
2019-01-10T05:42:24.494Z,0.8
2019-01-10T05:47:26.917Z,0.8
2019-01-10T05:52:29.366Z,0.8
2019-01-10T05:57:31.809Z,0.9
2019-01-10T06:02:34.271Z,0.9
2019-01-10T06:07:36.733Z,0.9
2019-01-10T06:12:39.206Z,0.9
2019-01-10T06:17:41.666Z,0.9
2019-01-10T06:22:44.170Z,0.9
2019-01-10T06:27:46.591Z,0.8
2019-01-10T06:32:49.048Z,0.8
2019-01-10T06:37:51.523Z,0.8
2019-01-10T06:42:54.030Z,0.8
2019-01-10T06:47:56.440Z,0.8
2019-01-10T06:52:58.902Z,0.7
2019-01-10T07:03:03.827Z,0.7
2019-01-10T07:08:06.300Z,0.7
2019-01-10T07:13:08.761Z,0.8
2019-01-10T07:18:11.233Z,0.8
2019-01-10T07:23:13.765Z,0.8
2019-01-10T07:28:16.213Z,0.8
2019-01-10T07:33:18.614Z,0.8
2019-01-10T07:38:21.071Z,0.8
2019-01-10T07:43:23.580Z,0.8
2019-01-10T07:48:26.080Z,0.7
2019-01-10T07:53:28.535Z,0.8
2019-01-10T07:58:30.918Z,0.8
2019-01-10T08:03:33.385Z,0.8
2019-01-10T08:08:35.841Z,0.7
2019-01-10T08:13:38.313Z,0.8
2019-01-10T08:18:40.782Z,0.8
2019-01-10T08:23:43.283Z,0.8
2019-01-10T08:28:45.778Z,0.8
2019-01-10T08:33:48.162Z,0.9
2019-01-10T08:38:50.633Z,0.9
2019-01-10T08:43:53.107Z,0.9
2019-01-10T08:48:55.560Z,1
2019-01-10T08:53:58.029Z,1
2019-01-10T08:59:00.488Z,1
2019-01-10T09:04:02.998Z,1.1
2019-01-10T09:09:05.511Z,1.1
2019-01-10T09:14:07.919Z,1.1
2019-01-10T09:19:10.371Z,1.1
2019-01-10T09:24:12.824Z,1.2
2019-01-10T09:29:15.320Z,1.2
2019-01-10T09:34:24.499Z,1.2
2019-01-10T09:39:20.214Z,1.1
2019-01-10T09:44:22.675Z,1
2019-01-10T09:49:25.137Z,1
2019-01-10T09:54:27.587Z,1
2019-01-10T09:59:30.042Z,1
2019-01-10T10:04:32.553Z,1.1
2019-01-10T10:09:34.971Z,1.1
2019-01-10T10:14:37.502Z,1.2
2019-01-10T10:19:39.925Z,1.2
2019-01-10T10:24:42.375Z,1.2
2019-01-10T10:29:44.815Z,1.2
2019-01-10T10:34:47.365Z,1.2
2019-01-10T10:39:49.754Z,1.2
2019-01-10T10:44:52.210Z,1.1
2019-01-10T10:49:54.677Z,1.1
2019-01-10T10:54:57.149Z,1
2019-01-10T10:59:59.616Z,1
2019-01-10T11:05:02.148Z,1
2019-01-10T11:10:04.569Z,0.9
2019-01-10T11:15:07.016Z,1
2019-01-10T11:20:09.455Z,1
2019-01-10T11:25:11.910Z,1.1
2019-01-10T11:30:14.374Z,1.1
2019-01-10T11:35:16.838Z,1.1
2019-01-10T11:40:19.310Z,1.1
2019-01-10T11:45:21.766Z,1.1
2019-01-10T11:50:24.241Z,1.2
2019-01-10T11:55:26.694Z,1.2
2019-01-10T12:00:29.151Z,1.2
2019-01-10T12:05:31.614Z,1.2
2019-01-10T12:10:34.127Z,1.1
2019-01-10T12:15:36.536Z,1.1
2019-01-10T12:20:38.977Z,1.1
2019-01-10T12:25:41.456Z,1.1
2019-01-10T12:30:43.915Z,1
2019-01-10T12:35:46.426Z,1
2019-01-10T12:40:48.903Z,1
2019-01-10T12:45:51.291Z,0.9
2019-01-10T12:50:53.760Z,0.9
2019-01-10T12:55:56.235Z,0.8
2019-01-10T13:00:58.694Z,0.8
2019-01-10T13:06:01.204Z,0.8
2019-01-10T13:11:03.611Z,0.9
2019-01-10T13:16:06.093Z,0.8
2019-01-10T13:21:09.699Z,0.7
2019-01-10T13:26:10.996Z,0.6
2019-01-10T13:31:13.469Z,0.5
2019-01-10T13:36:15.932Z,0.5
2019-01-10T13:41:18.403Z,0.5
2019-01-10T13:46:20.865Z,0.4
2019-01-10T13:51:23.325Z,0.3
2019-01-10T13:56:25.829Z,0.1
2019-01-10T14:01:28.255Z,0.1
2019-01-10T14:06:30.736Z,0.1
2019-01-10T14:11:33.249Z,0.1
2019-01-10T14:16:35.662Z,0.1
2019-01-10T14:21:38.130Z,0.1
2019-01-10T14:26:40.626Z,0
2019-01-10T14:31:43.060Z,0
2019-01-10T14:36:45.511Z,0
2019-01-10T14:41:48.006Z,0
2019-01-10T14:46:50.449Z,655.26
2019-01-10T14:51:52.924Z,655.16
2019-01-10T14:56:58.016Z,655.16
2019-01-10T15:01:57.844Z,655.16
2019-01-10T15:07:00.299Z,655.06
2019-01-10T15:12:02.825Z,654.96
2019-01-10T15:17:05.236Z,654.86
2019-01-10T15:22:07.703Z,654.86
2019-01-10T15:27:10.229Z,654.86
2019-01-10T15:32:12.623Z,654.76
2019-01-10T15:37:15.087Z,654.76
2019-01-10T15:42:17.557Z,654.66
2019-01-10T15:47:20.117Z,654.66
2019-01-10T15:52:22.490Z,654.66
2019-01-10T15:57:25.117Z,654.66
2019-01-10T16:02:27.402Z,654.66
2019-01-10T16:07:29.871Z,654.66
2019-01-10T16:12:32.363Z,654.66
2019-01-10T16:17:34.790Z,654.66
2019-01-10T16:22:37.304Z,654.66
2019-01-10T16:27:39.735Z,654.66
2019-01-10T16:32:42.193Z,654.66
2019-01-10T16:37:44.905Z,654.66
2019-01-10T16:42:47.125Z,654.66
2019-01-10T16:47:49.582Z,654.56
2019-01-10T16:52:52.069Z,654.56
2019-01-10T17:02:56.992Z,654.56
2019-01-10T17:07:59.440Z,654.46
2019-01-10T17:13:01.939Z,654.46
2019-01-10T17:18:04.441Z,654.36
2019-01-10T17:23:06.836Z,654.36
2019-01-10T17:28:09.305Z,654.36
2019-01-10T17:33:12.067Z,654.46
2019-01-10T17:38:14.225Z,654.46
2019-01-10T17:43:16.727Z,654.56
2019-01-10T17:48:19.175Z,654.66
2019-01-10T17:53:21.628Z,654.66
2019-01-10T17:58:24.097Z,654.66
2019-01-10T18:03:26.563Z,654.66
2019-01-10T18:08:29.019Z,654.56
2019-01-10T18:13:31.476Z,654.46
2019-01-10T18:18:33.964Z,654.46
2019-01-10T18:23:36.408Z,654.36
2019-01-10T18:28:38.872Z,654.36
2019-01-10T18:33:41.348Z,654.36
2019-01-10T18:38:43.798Z,654.26
2019-01-10T18:43:47.016Z,654.16
2019-01-10T18:48:48.711Z,654.16
2019-01-10T18:53:51.199Z,654.16
2019-01-10T18:58:53.634Z,654.16
2019-01-10T19:03:56.129Z,654.06
2019-01-10T19:08:58.563Z,653.96
2019-01-10T19:14:01.056Z,653.86
2019-01-10T19:19:03.496Z,653.96
2019-01-10T19:24:05.956Z,653.96
2019-01-10T19:29:08.424Z,653.96
2019-01-10T19:34:10.902Z,653.96
2019-01-10T19:39:13.371Z,653.96
2019-01-10T19:44:15.867Z,654.06
2019-01-10T19:49:18.262Z,654.06
2019-01-10T19:54:20.722Z,654.16
2019-01-10T19:59:24.027Z,654.16
2019-01-10T20:04:25.650Z,654.16
2019-01-10T20:09:29.995Z,654.26
2019-01-10T20:14:30.597Z,654.26
2019-01-10T20:19:33.035Z,654.26
2019-01-10T20:24:35.513Z,654.36
2019-01-10T20:29:37.959Z,654.36
2019-01-10T20:34:40.410Z,654.36
2019-01-10T20:39:42.875Z,654.36
2019-01-10T20:44:45.350Z,654.36
2019-01-10T20:54:50.269Z,654.36
2019-01-10T20:59:52.739Z,654.36
2019-01-10T21:04:55.180Z,654.46
2019-01-10T21:09:57.666Z,654.46
2019-01-10T21:15:00.162Z,654.46
2019-01-10T21:20:02.745Z,654.46
2019-01-10T21:25:05.077Z,654.46
2019-01-10T21:30:07.470Z,654.46
2019-01-10T21:40:12.430Z,654.46
2019-01-10T21:45:14.856Z,654.46
2019-01-10T21:50:17.432Z,654.46
2019-01-10T21:55:20.833Z,654.46
2019-01-10T22:00:22.253Z,654.46
2019-01-10T22:05:24.718Z,654.36
2019-01-10T22:10:27.203Z,654.36
2019-01-10T22:15:29.641Z,654.36
2019-01-10T22:20:32.111Z,654.36
2019-01-10T22:25:34.569Z,654.36
2019-01-10T22:30:37.033Z,654.36
2019-01-10T22:35:39.505Z,654.36
2019-01-10T22:40:41.988Z,654.36
2019-01-10T22:45:44.424Z,654.36
2019-01-10T22:50:46.886Z,654.46
2019-01-10T22:55:49.348Z,654.46
2019-01-10T23:00:51.886Z,654.46
2019-01-10T23:05:54.248Z,654.46
2019-01-10T23:10:56.715Z,654.36
2019-01-10T23:15:59.173Z,654.36
2019-01-10T23:21:01.641Z,654.26
2019-01-10T23:26:04.115Z,654.26
2019-01-10T23:31:06.559Z,654.16
2019-01-10T23:36:09.044Z,654.16
2019-01-10T23:41:11.479Z,654.16
2019-01-10T23:46:13.964Z,654.16
2019-01-10T23:51:16.416Z,654.16
2019-01-10T23:56:18.883Z,654.06
